sensor_id;sensor_type;location;lat;lon;timestamp;pressure;altitude;pressure_sealevel;temperature
68012;BMP180;54794;48.348;7.878;2022-08-21T00:01:41;99220.00;;;20.90
68012;BMP180;54794;48.348;7.878;2022-08-21T00:04:09;99225.00;;;20.90
68012;BMP180;54794;48.348;7.878;2022-08-21T00:06:40;99220.00;;;20.90
68012;BMP180;54794;48.348;7.878;2022-08-21T00:09:08;99220.00;;;20.90
68012;BMP180;54794;48.348;7.878;2022-08-21T00:11:37;99219.00;;;20.90
68012;BMP180;54794;48.348;7.878;2022-08-21T00:14:07;99221.00;;;20.80
68012;BMP180;54794;48.348;7.878;2022-08-21T00:16:34;99192.00;;;20.80
68012;BMP180;54794;48.348;7.878;2022-08-21T00:19:02;99216.00;;;20.80
68012;BMP180;54794;48.348;7.878;2022-08-21T00:21:30;99218.00;;;20.80
68012;BMP180;54794;48.348;7.878;2022-08-21T00:23:56;99214.00;;;20.80
68012;BMP180;54794;48.348;7.878;2022-08-21T00:26:23;99205.00;;;20.70
68012;BMP180;54794;48.348;7.878;2022-08-21T00:28:50;99202.00;;;20.70
68012;BMP180;54794;48.348;7.878;2022-08-21T00:31:17;99205.00;;;20.70
68012;BMP180;54794;48.348;7.878;2022-08-21T00:33:45;99206.00;;;20.70
68012;BMP180;54794;48.348;7.878;2022-08-21T00:36:13;99202.00;;;20.70
68012;BMP180;54794;48.348;7.878;2022-08-21T00:38:40;99209.00;;;20.70
68012;BMP180;54794;48.348;7.878;2022-08-21T00:41:10;99214.00;;;20.60
68012;BMP180;54794;48.348;7.878;2022-08-21T00:43:57;99204.00;;;20.60
68012;BMP180;54794;48.348;7.878;2022-08-21T00:46:24;99189.00;;;20.60
68012;BMP180;54794;48.348;7.878;2022-08-21T00:48:55;99192.00;;;20.60
68012;BMP180;54794;48.348;7.878;2022-08-21T00:51:43;99193.00;;;20.50
68012;BMP180;54794;48.348;7.878;2022-08-21T00:54:14;99193.00;;;20.50
68012;BMP180;54794;48.348;7.878;2022-08-21T00:56:48;99189.00;;;20.50
68012;BMP180;54794;48.348;7.878;2022-08-21T00:59:19;99187.00;;;20.50
68012;BMP180;54794;48.348;7.878;2022-08-21T01:01:47;99182.00;;;20.50
68012;BMP180;54794;48.348;7.878;2022-08-21T01:04:16;99185.00;;;20.40
68012;BMP180;54794;48.348;7.878;2022-08-21T01:06:43;99182.00;;;20.40
68012;BMP180;54794;48.348;7.878;2022-08-21T01:09:12;99177.00;;;20.40
68012;BMP180;54794;48.348;7.878;2022-08-21T01:11:41;99180.00;;;20.40
68012;BMP180;54794;48.348;7.878;2022-08-21T01:14:10;99181.00;;;20.40
68012;BMP180;54794;48.348;7.878;2022-08-21T01:16:44;99169.00;;;20.40
68012;BMP180;54794;48.348;7.878;2022-08-21T01:19:12;99188.00;;;20.30
68012;BMP180;54794;48.348;7.878;2022-08-21T01:21:40;99178.00;;;20.30
68012;BMP180;54794;48.348;7.878;2022-08-21T01:24:11;99172.00;;;20.30
68012;BMP180;54794;48.348;7.878;2022-08-21T01:26:39;99183.00;;;20.30
68012;BMP180;54794;48.348;7.878;2022-08-21T01:29:25;99178.00;;;20.20
68012;BMP180;54794;48.348;7.878;2022-08-21T01:31:54;99184.00;;;20.20
68012;BMP180;54794;48.348;7.878;2022-08-21T01:34:21;99193.00;;;20.20
68012;BMP180;54794;48.348;7.878;2022-08-21T01:36:48;99185.00;;;20.20
68012;BMP180;54794;48.348;7.878;2022-08-21T01:39:16;99194.00;;;20.20
68012;BMP180;54794;48.348;7.878;2022-08-21T01:41:43;99164.00;;;20.20
68012;BMP180;54794;48.348;7.878;2022-08-21T01:44:10;99178.00;;;20.10
68012;BMP180;54794;48.348;7.878;2022-08-21T01:46:38;99177.00;;;20.10
68012;BMP180;54794;48.348;7.878;2022-08-21T01:49:06;99177.00;;;20.10
68012;BMP180;54794;48.348;7.878;2022-08-21T01:51:33;99180.00;;;20.10
68012;BMP180;54794;48.348;7.878;2022-08-21T01:54:00;99173.00;;;20.10
68012;BMP180;54794;48.348;7.878;2022-08-21T01:56:27;99167.00;;;20.00
68012;BMP180;54794;48.348;7.878;2022-08-21T01:58:55;99172.00;;;20.00
68012;BMP180;54794;48.348;7.878;2022-08-21T02:01:22;99166.00;;;20.00
68012;BMP180;54794;48.348;7.878;2022-08-21T02:03:49;99149.00;;;20.00
68012;BMP180;54794;48.348;7.878;2022-08-21T02:06:16;99165.00;;;19.90
68012;BMP180;54794;48.348;7.878;2022-08-21T02:08:46;99154.00;;;19.90
68012;BMP180;54794;48.348;7.878;2022-08-21T02:11:13;99169.00;;;19.90
68012;BMP180;54794;48.348;7.878;2022-08-21T02:13:40;99165.00;;;19.90
68012;BMP180;54794;48.348;7.878;2022-08-21T02:16:08;99160.00;;;19.90
68012;BMP180;54794;48.348;7.878;2022-08-21T02:18:36;99158.00;;;19.80
68012;BMP180;54794;48.348;7.878;2022-08-21T02:21:05;99161.00;;;19.80
68012;BMP180;54794;48.348;7.878;2022-08-21T02:23:32;99160.00;;;19.80
68012;BMP180;54794;48.348;7.878;2022-08-21T02:26:03;99164.00;;;19.80
68012;BMP180;54794;48.348;7.878;2022-08-21T02:28:31;99156.00;;;19.80
68012;BMP180;54794;48.348;7.878;2022-08-21T02:30:59;99160.00;;;19.70
68012;BMP180;54794;48.348;7.878;2022-08-21T02:33:27;99151.00;;;19.70
68012;BMP180;54794;48.348;7.878;2022-08-21T02:35:56;99153.00;;;19.70
68012;BMP180;54794;48.348;7.878;2022-08-21T02:38:29;99161.00;;;19.70
68012;BMP180;54794;48.348;7.878;2022-08-21T02:40:57;99157.00;;;19.70
68012;BMP180;54794;48.348;7.878;2022-08-21T02:43:27;99148.00;;;19.60
68012;BMP180;54794;48.348;7.878;2022-08-21T02:45:56;99146.00;;;19.60
68012;BMP180;54794;48.348;7.878;2022-08-21T02:48:31;99142.00;;;19.60
68012;BMP180;54794;48.348;7.878;2022-08-21T02:53:31;99153.00;;;19.60
68012;BMP180;54794;48.348;7.878;2022-08-21T02:56:02;99147.00;;;19.60
68012;BMP180;54794;48.348;7.878;2022-08-21T02:58:40;99154.00;;;19.60
68012;BMP180;54794;48.348;7.878;2022-08-21T03:01:09;99150.00;;;19.50
68012;BMP180;54794;48.348;7.878;2022-08-21T03:03:40;99150.00;;;19.50
68012;BMP180;54794;48.348;7.878;2022-08-21T03:06:11;99148.00;;;19.50
68012;BMP180;54794;48.348;7.878;2022-08-21T03:08:39;99151.00;;;19.50
68012;BMP180;54794;48.348;7.878;2022-08-21T03:11:07;99150.00;;;19.50
68012;BMP180;54794;48.348;7.878;2022-08-21T03:13:36;99149.00;;;19.50
68012;BMP180;54794;48.348;7.878;2022-08-21T03:16:03;99146.00;;;19.50
68012;BMP180;54794;48.348;7.878;2022-08-21T03:18:35;99146.00;;;19.50
68012;BMP180;54794;48.348;7.878;2022-08-21T03:21:04;99141.00;;;19.50
68012;BMP180;54794;48.348;7.878;2022-08-21T03:23:31;99147.00;;;19.50
68012;BMP180;54794;48.348;7.878;2022-08-21T03:26:00;99137.00;;;19.40
68012;BMP180;54794;48.348;7.878;2022-08-21T03:28:27;99146.00;;;19.40
68012;BMP180;54794;48.348;7.878;2022-08-21T03:30:54;99142.00;;;19.40
68012;BMP180;54794;48.348;7.878;2022-08-21T03:33:22;99134.00;;;19.40
68012;BMP180;54794;48.348;7.878;2022-08-21T03:36:08;99142.00;;;19.30
68012;BMP180;54794;48.348;7.878;2022-08-21T03:38:36;99138.00;;;19.30
68012;BMP180;54794;48.348;7.878;2022-08-21T03:41:05;99137.00;;;19.30
68012;BMP180;54794;48.348;7.878;2022-08-21T03:43:34;99144.00;;;19.30
68012;BMP180;54794;48.348;7.878;2022-08-21T03:46:03;99127.00;;;19.20
68012;BMP180;54794;48.348;7.878;2022-08-21T03:48:32;99145.00;;;19.30
68012;BMP180;54794;48.348;7.878;2022-08-21T03:50:59;99142.00;;;19.30
68012;BMP180;54794;48.348;7.878;2022-08-21T03:53:26;99140.00;;;19.30
68012;BMP180;54794;48.348;7.878;2022-08-21T03:55:53;99142.00;;;19.20
68012;BMP180;54794;48.348;7.878;2022-08-21T03:58:25;99122.00;;;19.20
68012;BMP180;54794;48.348;7.878;2022-08-21T04:00:57;99147.00;;;19.20
68012;BMP180;54794;48.348;7.878;2022-08-21T04:03:26;99150.00;;;19.20
68012;BMP180;54794;48.348;7.878;2022-08-21T04:05:53;99148.00;;;19.20
68012;BMP180;54794;48.348;7.878;2022-08-21T04:08:20;99158.00;;;19.20
68012;BMP180;54794;48.348;7.878;2022-08-21T04:10:51;99151.00;;;19.20
68012;BMP180;54794;48.348;7.878;2022-08-21T04:13:19;99156.00;;;19.20
68012;BMP180;54794;48.348;7.878;2022-08-21T04:15:47;99152.00;;;19.20
68012;BMP180;54794;48.348;7.878;2022-08-21T04:18:15;99116.00;;;19.20
68012;BMP180;54794;48.348;7.878;2022-08-21T04:20:47;99168.00;;;19.20
68012;BMP180;54794;48.348;7.878;2022-08-21T04:23:18;99161.00;;;19.20
68012;BMP180;54794;48.348;7.878;2022-08-21T04:25:52;99158.00;;;19.20
68012;BMP180;54794;48.348;7.878;2022-08-21T04:28:21;99158.00;;;19.10
68012;BMP180;54794;48.348;7.878;2022-08-21T04:30:55;99160.00;;;19.10
68012;BMP180;54794;48.348;7.878;2022-08-21T04:33:23;99154.00;;;19.10
68012;BMP180;54794;48.348;7.878;2022-08-21T04:35:51;99161.00;;;19.10
68012;BMP180;54794;48.348;7.878;2022-08-21T04:38:18;99170.00;;;19.10
68012;BMP180;54794;48.348;7.878;2022-08-21T04:40:47;99171.00;;;19.10
68012;BMP180;54794;48.348;7.878;2022-08-21T04:43:15;99185.00;;;19.10
68012;BMP180;54794;48.348;7.878;2022-08-21T04:45:46;99179.00;;;19.10
68012;BMP180;54794;48.348;7.878;2022-08-21T04:48:17;99170.00;;;19.10
68012;BMP180;54794;48.348;7.878;2022-08-21T04:50:57;99173.00;;;19.10
68012;BMP180;54794;48.348;7.878;2022-08-21T04:53:41;99177.00;;;19.00
68012;BMP180;54794;48.348;7.878;2022-08-21T04:56:41;99180.00;;;19.00
68012;BMP180;54794;48.348;7.878;2022-08-21T04:59:24;99176.00;;;19.00
68012;BMP180;54794;48.348;7.878;2022-08-21T05:01:53;99178.00;;;19.00
68012;BMP180;54794;48.348;7.878;2022-08-21T05:04:28;99183.00;;;19.00
68012;BMP180;54794;48.348;7.878;2022-08-21T05:07:02;99176.00;;;18.90
68012;BMP180;54794;48.348;7.878;2022-08-21T05:09:30;99177.00;;;18.90
68012;BMP180;54794;48.348;7.878;2022-08-21T05:11:57;99174.00;;;18.90
68012;BMP180;54794;48.348;7.878;2022-08-21T05:14:25;99175.00;;;18.80
68012;BMP180;54794;48.348;7.878;2022-08-21T05:16:53;99181.00;;;18.90
68012;BMP180;54794;48.348;7.878;2022-08-21T05:19:20;99182.00;;;18.90
68012;BMP180;54794;48.348;7.878;2022-08-21T05:21:48;99169.00;;;18.90
68012;BMP180;54794;48.348;7.878;2022-08-21T05:24:15;99181.00;;;18.90
68012;BMP180;54794;48.348;7.878;2022-08-21T05:26:42;99156.00;;;18.80
68012;BMP180;54794;48.348;7.878;2022-08-21T05:29:14;99177.00;;;18.90
68012;BMP180;54794;48.348;7.878;2022-08-21T05:31:43;99184.00;;;18.90
68012;BMP180;54794;48.348;7.878;2022-08-21T05:34:12;99188.00;;;18.90
68012;BMP180;54794;48.348;7.878;2022-08-21T05:36:42;99183.00;;;18.90
68012;BMP180;54794;48.348;7.878;2022-08-21T05:39:10;99179.00;;;18.90
68012;BMP180;54794;48.348;7.878;2022-08-21T05:41:37;99181.00;;;18.90
68012;BMP180;54794;48.348;7.878;2022-08-21T05:44:05;99182.00;;;19.00
68012;BMP180;54794;48.348;7.878;2022-08-21T05:46:36;99183.00;;;19.00
68012;BMP180;54794;48.348;7.878;2022-08-21T05:49:03;99175.00;;;19.00
68012;BMP180;54794;48.348;7.878;2022-08-21T05:51:30;99184.00;;;19.00
68012;BMP180;54794;48.348;7.878;2022-08-21T05:53:57;99172.00;;;19.10
68012;BMP180;54794;48.348;7.878;2022-08-21T05:56:25;99171.00;;;19.10
68012;BMP180;54794;48.348;7.878;2022-08-21T05:58:51;99181.00;;;19.10
68012;BMP180;54794;48.348;7.878;2022-08-21T06:01:18;99188.00;;;19.20
68012;BMP180;54794;48.348;7.878;2022-08-21T06:03:45;99179.00;;;19.20
68012;BMP180;54794;48.348;7.878;2022-08-21T06:06:12;99177.00;;;19.30
68012;BMP180;54794;48.348;7.878;2022-08-21T06:08:39;99182.00;;;19.30
68012;BMP180;54794;48.348;7.878;2022-08-21T06:11:09;99167.00;;;19.30
68012;BMP180;54794;48.348;7.878;2022-08-21T06:13:37;99181.00;;;19.30
68012;BMP180;54794;48.348;7.878;2022-08-21T06:16:08;99191.00;;;19.40
68012;BMP180;54794;48.348;7.878;2022-08-21T06:18:38;99183.00;;;19.50
68012;BMP180;54794;48.348;7.878;2022-08-21T06:21:06;99184.00;;;19.50
68012;BMP180;54794;48.348;7.878;2022-08-21T06:23:33;99188.00;;;19.60
68012;BMP180;54794;48.348;7.878;2022-08-21T06:26:03;99181.00;;;19.70
68012;BMP180;54794;48.348;7.878;2022-08-21T06:28:32;99186.00;;;19.70
68012;BMP180;54794;48.348;7.878;2022-08-21T06:30:59;99191.00;;;19.80
68012;BMP180;54794;48.348;7.878;2022-08-21T06:33:27;99170.00;;;19.80
68012;BMP180;54794;48.348;7.878;2022-08-21T06:35:58;99188.00;;;19.90
68012;BMP180;54794;48.348;7.878;2022-08-21T06:38:26;99185.00;;;20.00
68012;BMP180;54794;48.348;7.878;2022-08-21T06:40:54;99190.00;;;20.00
68012;BMP180;54794;48.348;7.878;2022-08-21T06:43:23;99183.00;;;20.10
68012;BMP180;54794;48.348;7.878;2022-08-21T06:46:07;99183.00;;;20.20
68012;BMP180;54794;48.348;7.878;2022-08-21T06:48:34;99197.00;;;20.30
68012;BMP180;54794;48.348;7.878;2022-08-21T06:51:01;99183.00;;;20.30
68012;BMP180;54794;48.348;7.878;2022-08-21T06:53:29;99186.00;;;20.30
68012;BMP180;54794;48.348;7.878;2022-08-21T06:55:56;99176.00;;;20.50
68012;BMP180;54794;48.348;7.878;2022-08-21T06:58:22;99175.00;;;20.60
68012;BMP180;54794;48.348;7.878;2022-08-21T07:00:50;99179.00;;;20.70
68012;BMP180;54794;48.348;7.878;2022-08-21T07:03:31;99180.00;;;20.80
68012;BMP180;54794;48.348;7.878;2022-08-21T07:05:58;99181.00;;;20.90
68012;BMP180;54794;48.348;7.878;2022-08-21T07:08:27;99165.00;;;21.00
68012;BMP180;54794;48.348;7.878;2022-08-21T07:10:59;99184.00;;;21.10
68012;BMP180;54794;48.348;7.878;2022-08-21T07:13:27;99159.00;;;21.20
68012;BMP180;54794;48.348;7.878;2022-08-21T07:15:54;99180.00;;;21.30
68012;BMP180;54794;48.348;7.878;2022-08-21T07:18:27;99174.00;;;21.40
68012;BMP180;54794;48.348;7.878;2022-08-21T07:20:55;99185.00;;;21.50
68012;BMP180;54794;48.348;7.878;2022-08-21T07:23:28;99180.00;;;21.60
68012;BMP180;54794;48.348;7.878;2022-08-21T07:25:56;99177.00;;;21.70
68012;BMP180;54794;48.348;7.878;2022-08-21T07:28:24;99178.00;;;21.80
68012;BMP180;54794;48.348;7.878;2022-08-21T07:30:54;99178.00;;;22.00
68012;BMP180;54794;48.348;7.878;2022-08-21T07:33:22;99182.00;;;22.10
68012;BMP180;54794;48.348;7.878;2022-08-21T07:35:49;99170.00;;;22.20
68012;BMP180;54794;48.348;7.878;2022-08-21T07:38:16;99178.00;;;22.30
68012;BMP180;54794;48.348;7.878;2022-08-21T07:40:43;99158.00;;;22.40
68012;BMP180;54794;48.348;7.878;2022-08-21T07:43:10;99167.00;;;22.50
68012;BMP180;54794;48.348;7.878;2022-08-21T07:45:38;99166.00;;;22.70
68012;BMP180;54794;48.348;7.878;2022-08-21T07:48:05;99176.00;;;22.80
68012;BMP180;54794;48.348;7.878;2022-08-21T07:50:32;99172.00;;;22.90
68012;BMP180;54794;48.348;7.878;2022-08-21T07:52:59;99179.00;;;23.00
68012;BMP180;54794;48.348;7.878;2022-08-21T07:55:26;99161.00;;;23.20
68012;BMP180;54794;48.348;7.878;2022-08-21T07:57:53;99162.00;;;23.30
68012;BMP180;54794;48.348;7.878;2022-08-21T08:00:23;99169.00;;;23.40
68012;BMP180;54794;48.348;7.878;2022-08-21T08:02:52;99170.00;;;23.50
68012;BMP180;54794;48.348;7.878;2022-08-21T08:05:25;99162.00;;;23.70
68012;BMP180;54794;48.348;7.878;2022-08-21T08:07:53;99147.00;;;23.80
68012;BMP180;54794;48.348;7.878;2022-08-21T08:10:22;99161.00;;;23.90
68012;BMP180;54794;48.348;7.878;2022-08-21T08:12:52;99161.00;;;24.00
68012;BMP180;54794;48.348;7.878;2022-08-21T08:15:24;99158.00;;;24.20
68012;BMP180;54794;48.348;7.878;2022-08-21T08:17:53;99148.00;;;24.30
68012;BMP180;54794;48.348;7.878;2022-08-21T08:20:23;99156.00;;;24.40
68012;BMP180;54794;48.348;7.878;2022-08-21T08:22:50;99147.00;;;24.50
68012;BMP180;54794;48.348;7.878;2022-08-21T08:25:19;99148.00;;;24.60
68012;BMP180;54794;48.348;7.878;2022-08-21T08:27:47;99145.00;;;24.70
68012;BMP180;54794;48.348;7.878;2022-08-21T08:30:17;99146.00;;;24.80
68012;BMP180;54794;48.348;7.878;2022-08-21T08:32:46;99147.00;;;24.90
68012;BMP180;54794;48.348;7.878;2022-08-21T08:35:14;99147.00;;;25.00
68012;BMP180;54794;48.348;7.878;2022-08-21T08:37:42;99141.00;;;25.20
68012;BMP180;54794;48.348;7.878;2022-08-21T08:40:35;99146.00;;;25.30
68012;BMP180;54794;48.348;7.878;2022-08-21T08:43:08;99147.00;;;25.40
68012;BMP180;54794;48.348;7.878;2022-08-21T08:45:49;99150.00;;;25.60
68012;BMP180;54794;48.348;7.878;2022-08-21T08:48:58;99147.00;;;25.70
68012;BMP180;54794;48.348;7.878;2022-08-21T08:51:53;99137.00;;;25.90
68012;BMP180;54794;48.348;7.878;2022-08-21T08:54:41;99135.00;;;26.00
68012;BMP180;54794;48.348;7.878;2022-08-21T08:57:22;99122.00;;;26.10
68012;BMP180;54794;48.348;7.878;2022-08-21T09:00:11;99132.00;;;26.30
68012;BMP180;54794;48.348;7.878;2022-08-21T09:02:45;99118.00;;;26.40
68012;BMP180;54794;48.348;7.878;2022-08-21T09:05:43;99125.00;;;26.50
68012;BMP180;54794;48.348;7.878;2022-08-21T09:08:50;99129.00;;;26.60
68012;BMP180;54794;48.348;7.878;2022-08-21T09:12:15;99123.00;;;26.70
68012;BMP180;54794;48.348;7.878;2022-08-21T09:26:24;99099.00;;;27.20
68012;BMP180;54794;48.348;7.878;2022-08-21T09:28:58;99104.00;;;27.20
68012;BMP180;54794;48.348;7.878;2022-08-21T09:31:35;99099.00;;;27.40
68012;BMP180;54794;48.348;7.878;2022-08-21T09:34:09;99098.00;;;27.40
68012;BMP180;54794;48.348;7.878;2022-08-21T09:36:48;99096.00;;;27.50
68012;BMP180;54794;48.348;7.878;2022-08-21T09:39:31;99094.00;;;27.60
68012;BMP180;54794;48.348;7.878;2022-08-21T09:42:09;99094.00;;;27.70
68012;BMP180;54794;48.348;7.878;2022-08-21T09:44:40;99087.00;;;27.80
68012;BMP180;54794;48.348;7.878;2022-08-21T09:47:11;99094.00;;;27.90
68012;BMP180;54794;48.348;7.878;2022-08-21T09:49:43;99095.00;;;28.00
68012;BMP180;54794;48.348;7.878;2022-08-21T09:52:22;99091.00;;;28.20
68012;BMP180;54794;48.348;7.878;2022-08-21T09:54:55;99082.00;;;28.30
68012;BMP180;54794;48.348;7.878;2022-08-21T09:57:27;99093.00;;;28.50
68012;BMP180;54794;48.348;7.878;2022-08-21T10:00:30;99097.00;;;28.60
68012;BMP180;54794;48.348;7.878;2022-08-21T10:03:20;99086.00;;;28.70
68012;BMP180;54794;48.348;7.878;2022-08-21T10:06:06;99071.00;;;28.80
68012;BMP180;54794;48.348;7.878;2022-08-21T10:08:38;99076.00;;;28.90
68012;BMP180;54794;48.348;7.878;2022-08-21T10:11:14;99076.00;;;29.00
68012;BMP180;54794;48.348;7.878;2022-08-21T10:16:22;99089.00;;;29.10
68012;BMP180;54794;48.348;7.878;2022-08-21T10:19:24;99082.00;;;29.30
68012;BMP180;54794;48.348;7.878;2022-08-21T10:25:18;99072.00;;;29.50
68012;BMP180;54794;48.348;7.878;2022-08-21T10:28:21;99074.00;;;29.60
68012;BMP180;54794;48.348;7.878;2022-08-21T10:31:59;99069.00;;;29.70
68012;BMP180;54794;48.348;7.878;2022-08-21T10:37:17;99050.00;;;30.00
68012;BMP180;54794;48.348;7.878;2022-08-21T10:40:15;99071.00;;;30.10
68012;BMP180;54794;48.348;7.878;2022-08-21T10:43:07;99061.00;;;30.10
68012;BMP180;54794;48.348;7.878;2022-08-21T10:46:06;99059.00;;;30.20
68012;BMP180;54794;48.348;7.878;2022-08-21T10:48:55;99063.00;;;30.30
68012;BMP180;54794;48.348;7.878;2022-08-21T10:55:02;99069.00;;;30.60
68012;BMP180;54794;48.348;7.878;2022-08-21T11:00:11;99049.00;;;30.70
68012;BMP180;54794;48.348;7.878;2022-08-21T11:02:51;99058.00;;;30.80
68012;BMP180;54794;48.348;7.878;2022-08-21T11:08:43;99058.00;;;31.00
68012;BMP180;54794;48.348;7.878;2022-08-21T11:11:35;99028.00;;;31.10
68012;BMP180;54794;48.348;7.878;2022-08-21T11:17:07;99039.00;;;31.30
68012;BMP180;54794;48.348;7.878;2022-08-21T11:22:50;99040.00;;;31.40
68012;BMP180;54794;48.348;7.878;2022-08-21T11:25:38;99038.00;;;31.60
68012;BMP180;54794;48.348;7.878;2022-08-21T11:28:26;99041.00;;;31.70
68012;BMP180;54794;48.348;7.878;2022-08-21T11:34:13;99031.00;;;31.80
68012;BMP180;54794;48.348;7.878;2022-08-21T11:45:45;99029.00;;;32.20
68012;BMP180;54794;48.348;7.878;2022-08-21T11:51:23;99020.00;;;32.50
68012;BMP180;54794;48.348;7.878;2022-08-21T11:56:41;99007.00;;;32.70
68012;BMP180;54794;48.348;7.878;2022-08-21T11:59:32;99018.00;;;32.70
68012;BMP180;54794;48.348;7.878;2022-08-21T12:02:18;99002.00;;;32.70
68012;BMP180;54794;48.348;7.878;2022-08-21T12:05:00;99013.00;;;32.70
68012;BMP180;54794;48.348;7.878;2022-08-21T12:07:40;99008.00;;;32.80
68012;BMP180;54794;48.348;7.878;2022-08-21T12:10:13;99002.00;;;32.80
68012;BMP180;54794;48.348;7.878;2022-08-21T12:12:43;98991.00;;;32.90
68012;BMP180;54794;48.348;7.878;2022-08-21T12:21:24;99014.00;;;33.10
68012;BMP180;54794;48.348;7.878;2022-08-21T12:23:43;99002.00;;;33.30
68012;BMP180;54794;48.348;7.878;2022-08-21T12:26:24;99010.00;;;33.40
68012;BMP180;54794;48.348;7.878;2022-08-21T12:34:40;99010.00;;;33.50
68012;BMP180;54794;48.348;7.878;2022-08-21T12:37:43;98993.00;;;33.60
68012;BMP180;54794;48.348;7.878;2022-08-21T12:40:24;98997.00;;;33.70
68012;BMP180;54794;48.348;7.878;2022-08-21T12:42:58;99000.00;;;33.80
68012;BMP180;54794;48.348;7.878;2022-08-21T12:45:33;99001.00;;;33.80
68012;BMP180;54794;48.348;7.878;2022-08-21T12:48:20;98996.00;;;33.90
68012;BMP180;54794;48.348;7.878;2022-08-21T12:50:53;98996.00;;;34.00
68012;BMP180;54794;48.348;7.878;2022-08-21T12:56:31;98997.00;;;34.20
68012;BMP180;54794;48.348;7.878;2022-08-21T12:59:06;98994.00;;;34.30
68012;BMP180;54794;48.348;7.878;2022-08-21T13:01:38;98990.00;;;34.40
68012;BMP180;54794;48.348;7.878;2022-08-21T13:04:16;98992.00;;;34.40
68012;BMP180;54794;48.348;7.878;2022-08-21T13:06:47;98988.00;;;34.50
68012;BMP180;54794;48.348;7.878;2022-08-21T13:09:22;98997.00;;;34.60
68012;BMP180;54794;48.348;7.878;2022-08-21T13:11:51;98997.00;;;34.60
68012;BMP180;54794;48.348;7.878;2022-08-21T13:17:11;98986.00;;;34.70
68012;BMP180;54794;48.348;7.878;2022-08-21T13:22:24;98988.00;;;34.80
68012;BMP180;54794;48.348;7.878;2022-08-21T13:25:01;98983.00;;;34.90
68012;BMP180;54794;48.348;7.878;2022-08-21T13:27:33;98979.00;;;35.00
68012;BMP180;54794;48.348;7.878;2022-08-21T13:30:20;98977.00;;;35.00
68012;BMP180;54794;48.348;7.878;2022-08-21T13:32:56;98965.00;;;35.00
68012;BMP180;54794;48.348;7.878;2022-08-21T13:38:12;98985.00;;;35.20
68012;BMP180;54794;48.348;7.878;2022-08-21T13:40:53;98971.00;;;35.30
68012;BMP180;54794;48.348;7.878;2022-08-21T13:43:32;98970.00;;;35.30
68012;BMP180;54794;48.348;7.878;2022-08-21T13:46:00;98970.00;;;35.20
68012;BMP180;54794;48.348;7.878;2022-08-21T13:48:33;98965.00;;;35.40
68012;BMP180;54794;48.348;7.878;2022-08-21T13:51:02;98963.00;;;35.40
68012;BMP180;54794;48.348;7.878;2022-08-21T13:53:34;98962.00;;;35.50
68012;BMP180;54794;48.348;7.878;2022-08-21T13:56:04;98962.00;;;35.50
68012;BMP180;54794;48.348;7.878;2022-08-21T13:58:45;98961.00;;;35.60
68012;BMP180;54794;48.348;7.878;2022-08-21T14:01:25;98967.00;;;35.70
68012;BMP180;54794;48.348;7.878;2022-08-21T14:04:02;98965.00;;;35.70
68012;BMP180;54794;48.348;7.878;2022-08-21T14:06:37;98959.00;;;35.80
68012;BMP180;54794;48.348;7.878;2022-08-21T14:11:47;98957.00;;;35.90
68012;BMP180;54794;48.348;7.878;2022-08-21T14:14:31;98958.00;;;35.90
68012;BMP180;54794;48.348;7.878;2022-08-21T14:17:06;98954.00;;;36.00
68012;BMP180;54794;48.348;7.878;2022-08-21T14:19:54;98937.00;;;36.10
68012;BMP180;54794;48.348;7.878;2022-08-21T14:22:42;98949.00;;;36.10
68012;BMP180;54794;48.348;7.878;2022-08-21T14:25:36;98943.00;;;36.10
68012;BMP180;54794;48.348;7.878;2022-08-21T14:30:46;98945.00;;;36.20
68012;BMP180;54794;48.348;7.878;2022-08-21T14:33:29;98939.00;;;36.20
68012;BMP180;54794;48.348;7.878;2022-08-21T14:35:58;98940.00;;;36.20
68012;BMP180;54794;48.348;7.878;2022-08-21T14:38:27;98935.00;;;36.30
68012;BMP180;54794;48.348;7.878;2022-08-21T14:41:00;98936.00;;;36.30
68012;BMP180;54794;48.348;7.878;2022-08-21T14:43:31;98926.00;;;36.30
68012;BMP180;54794;48.348;7.878;2022-08-21T14:45:58;98934.00;;;36.30
68012;BMP180;54794;48.348;7.878;2022-08-21T14:48:26;98930.00;;;36.40
68012;BMP180;54794;48.348;7.878;2022-08-21T14:50:53;98933.00;;;36.30
68012;BMP180;54794;48.348;7.878;2022-08-21T14:53:26;98924.00;;;36.30
68012;BMP180;54794;48.348;7.878;2022-08-21T14:55:53;98907.00;;;36.30
68012;BMP180;54794;48.348;7.878;2022-08-21T14:58:43;98893.00;;;36.30
68012;BMP180;54794;48.348;7.878;2022-08-21T15:01:13;98893.00;;;36.30
68012;BMP180;54794;48.348;7.878;2022-08-21T15:03:42;98894.00;;;36.30
68012;BMP180;54794;48.348;7.878;2022-08-21T15:06:10;98897.00;;;36.30
68012;BMP180;54794;48.348;7.878;2022-08-21T15:08:37;98900.00;;;36.30
68012;BMP180;54794;48.348;7.878;2022-08-21T15:11:06;98899.00;;;36.20
68012;BMP180;54794;48.348;7.878;2022-08-21T15:13:39;98897.00;;;36.30
68012;BMP180;54794;48.348;7.878;2022-08-21T15:16:09;98899.00;;;36.30
68012;BMP180;54794;48.348;7.878;2022-08-21T15:18:38;98900.00;;;36.30
68012;BMP180;54794;48.348;7.878;2022-08-21T15:21:05;98902.00;;;36.30
68012;BMP180;54794;48.348;7.878;2022-08-21T15:23:32;98901.00;;;36.20
68012;BMP180;54794;48.348;7.878;2022-08-21T15:25:59;98897.00;;;36.10
68012;BMP180;54794;48.348;7.878;2022-08-21T15:28:28;98895.00;;;36.10
68012;BMP180;54794;48.348;7.878;2022-08-21T15:31:00;98892.00;;;36.10
68012;BMP180;54794;48.348;7.878;2022-08-21T15:33:27;98896.00;;;36.10
68012;BMP180;54794;48.348;7.878;2022-08-21T15:35:55;98897.00;;;36.10
68012;BMP180;54794;48.348;7.878;2022-08-21T15:38:23;98871.00;;;36.10
68012;BMP180;54794;48.348;7.878;2022-08-21T15:40:50;98889.00;;;36.00
68012;BMP180;54794;48.348;7.878;2022-08-21T15:43:45;98885.00;;;36.00
68012;BMP180;54794;48.348;7.878;2022-08-21T15:46:15;98875.00;;;35.90
68012;BMP180;54794;48.348;7.878;2022-08-21T15:48:44;98886.00;;;35.90
68012;BMP180;54794;48.348;7.878;2022-08-21T15:51:15;98873.00;;;35.80
68012;BMP180;54794;48.348;7.878;2022-08-21T15:53:43;98883.00;;;35.80
68012;BMP180;54794;48.348;7.878;2022-08-21T15:56:24;98881.00;;;35.80
68012;BMP180;54794;48.348;7.878;2022-08-21T15:58:58;98873.00;;;35.60
68012;BMP180;54794;48.348;7.878;2022-08-21T16:01:27;98883.00;;;35.60
68012;BMP180;54794;48.348;7.878;2022-08-21T16:04:03;98878.00;;;35.50
68012;BMP180;54794;48.348;7.878;2022-08-21T16:06:30;98862.00;;;35.60